createdAt,value
2022-09-13T00:24:25.414Z,6.13
2022-09-13T00:30:37.267Z,6.03
2022-09-13T00:42:22.939Z,6.37
2022-09-13T00:47:51.704Z,6.40
2022-09-13T00:53:38.374Z,5.87
2022-09-13T01:45:12.136Z,6.30
2022-09-13T02:10:46.668Z,6.30
2022-09-13T04:35:02.562Z,8.20
2022-09-13T04:40:07.708Z,7.57
2022-09-13T04:45:10.685Z,7.83
2022-09-13T04:50:14.210Z,8.00
2022-09-13T04:55:16.718Z,8.40
2022-09-13T05:00:19.139Z,8.40
2022-09-13T05:05:21.480Z,8.00
2022-09-13T05:10:24.456Z,7.90
2022-09-13T05:15:26.750Z,8.40
2022-09-13T05:20:29.085Z,7.93
2022-09-13T05:25:31.420Z,8.60
2022-09-13T05:30:33.777Z,8.27
2022-09-13T05:35:40.247Z,9.27
2022-09-13T05:40:42.590Z,11.83
2022-09-13T05:45:44.933Z,13.13
2022-09-13T05:50:58.225Z,13.03
2022-09-13T05:56:01.801Z,12.87
2022-09-13T06:01:04.254Z,14.30
2022-09-13T06:06:07.790Z,14.70
2022-09-13T06:11:12.328Z,14.73
2022-09-13T06:16:16.247Z,14.63
2022-09-13T06:21:22.933Z,14.40
2022-09-13T06:26:28.612Z,13.93
2022-09-13T06:31:31.123Z,13.73
2022-09-13T06:36:33.515Z,12.50
2022-09-13T06:41:37.374Z,13.27
2022-09-13T06:46:39.863Z,13.40
2022-09-13T06:51:42.289Z,12.33
2022-09-13T06:56:44.635Z,12.23
2022-09-13T07:01:47.347Z,11.30
2022-09-13T07:06:50.219Z,12.17
2022-09-13T07:11:55.361Z,12.17
2022-09-13T07:16:57.881Z,12.00
2022-09-13T07:22:00.322Z,11.20
2022-09-13T07:27:02.700Z,10.57
2022-09-13T07:32:05.264Z,11.30
2022-09-13T07:37:07.789Z,11.87
2022-09-13T07:42:12.624Z,10.97
2022-09-13T07:47:15.670Z,10.90
2022-09-13T07:52:18.001Z,11.03
2022-09-13T07:57:20.336Z,10.20
2022-09-13T08:02:22.708Z,9.77
2022-09-13T08:07:25.075Z,7.30
2022-09-13T08:12:27.571Z,8.27
2022-09-13T08:17:29.891Z,6.83
2022-09-13T08:22:32.190Z,7.30
2022-09-13T08:27:34.783Z,6.60
2022-09-13T08:32:37.149Z,6.40
2022-09-13T08:37:39.505Z,7.57
2022-09-13T08:43:08.363Z,6.03
2022-09-13T08:48:22.379Z,6.10
2022-09-13T08:53:24.771Z,6.03
2022-09-13T08:58:27.221Z,5.53
2022-09-13T09:03:43.780Z,5.50
2022-09-13T09:08:50.189Z,5.50
2022-09-13T09:14:05.039Z,4.80
2022-09-13T09:19:21.101Z,4.53
2022-09-13T09:24:25.890Z,4.70
2022-09-13T09:29:32.892Z,4.17
2022-09-13T09:34:46.964Z,4.23
2022-09-13T09:39:51.069Z,4.77
2022-09-13T09:45:00.613Z,5.00
2022-09-13T09:50:20.648Z,4.87
2022-09-13T09:55:28.346Z,4.80
2022-09-13T10:00:35.540Z,5.30
2022-09-13T10:05:38.656Z,4.80
2022-09-13T10:10:52.015Z,5.20
2022-09-13T10:16:03.280Z,5.80
2022-09-13T10:21:24.096Z,5.57
2022-09-13T10:26:26.973Z,6.20
2022-09-13T10:31:41.686Z,6.20
2022-09-13T10:36:53.639Z,6.30
2022-09-13T10:41:58.251Z,6.90
2022-09-13T10:47:06.342Z,7.10
2022-09-13T10:52:28.938Z,7.00
2022-09-13T10:57:36.937Z,6.77
2022-09-13T11:03:03.091Z,6.27
2022-09-13T11:08:25.997Z,7.40
2022-09-13T11:13:59.568Z,7.47
2022-09-13T11:19:38.762Z,6.20
2022-09-13T11:25:18.866Z,6.93
2022-09-13T11:30:29.156Z,7.50
2022-09-13T11:35:38.299Z,6.50
2022-09-13T11:41:05.308Z,6.93
2022-09-13T11:46:07.659Z,7.03
2022-09-13T11:51:37.702Z,6.33
2022-09-13T11:56:47.052Z,6.80
2022-09-13T12:02:00.384Z,6.33
2022-09-13T12:07:09.900Z,5.93
2022-09-13T12:12:14.359Z,5.93
2022-09-13T12:17:28.066Z,5.83
2022-09-13T12:22:34.882Z,6.27
2022-09-13T12:28:02.571Z,6.90
2022-09-13T12:40:06.442Z,6.70
2022-09-13T12:59:29.560Z,6.60
2022-09-13T13:04:41.534Z,6.47
2022-09-13T13:09:55.486Z,6.00
2022-09-13T13:15:54.832Z,6.80
2022-09-13T13:20:57.771Z,7.27
2022-09-13T13:26:32.394Z,7.83
2022-09-13T13:31:43.654Z,7.67
2022-09-13T13:37:23.814Z,6.90
2022-09-13T13:42:41.723Z,9.03
2022-09-13T13:48:00.179Z,6.37
2022-09-13T13:53:34.313Z,6.23
2022-09-13T13:58:50.832Z,6.53
2022-09-13T14:57:40.767Z,5.87
2022-09-13T15:02:58.439Z,5.60
2022-09-13T15:08:24.845Z,5.50
2022-09-13T15:13:29.028Z,7.13
2022-09-13T15:18:36.542Z,6.80
2022-09-13T15:23:43.235Z,7.03
2022-09-13T15:28:54.708Z,7.10
2022-09-13T15:34:20.421Z,8.57
2022-09-13T15:39:22.890Z,7.37
2022-09-13T15:44:26.484Z,7.53
2022-09-13T15:49:29.809Z,7.80
2022-09-13T15:54:39.365Z,7.20
2022-09-13T15:59:41.929Z,7.53
2022-09-13T16:04:44.761Z,6.63
2022-09-13T16:09:49.773Z,9.13
2022-09-13T16:14:52.395Z,11.83
2022-09-13T16:19:55.301Z,12.30
2022-09-13T16:24:57.840Z,12.70
2022-09-13T16:30:00.480Z,13.47
2022-09-13T16:35:02.945Z,14.80
2022-09-13T16:40:06.339Z,14.67
2022-09-13T16:45:10.388Z,24.60
2022-09-13T16:50:13.319Z,24.47
2022-09-13T16:55:16.255Z,20.77
2022-09-13T17:00:20.155Z,18.37
2022-09-13T17:05:23.573Z,19.97
2022-09-13T17:10:26.060Z,19.80
2022-09-13T17:15:28.584Z,20.87
2022-09-13T17:20:30.968Z,21.83
2022-09-13T17:25:33.441Z,21.50
2022-09-13T17:30:35.985Z,22.90
2022-09-13T17:35:38.936Z,22.37
2022-09-13T17:40:43.504Z,20.80
2022-09-13T17:45:46.031Z,21.47
2022-09-13T17:50:48.502Z,23.13
2022-09-13T17:55:53.357Z,22.37
2022-09-13T18:01:07.705Z,24.13
2022-09-13T18:06:11.739Z,25.10
2022-09-13T18:11:22.220Z,26.97
2022-09-13T18:16:27.037Z,25.40
2022-09-13T18:21:29.865Z,24.83
2022-09-13T18:26:35.127Z,25.63
2022-09-13T18:31:38.582Z,27.93
2022-09-13T18:36:41.730Z,26.77
2022-09-13T18:41:45.713Z,27.13
2022-09-13T18:46:49.188Z,28.60
2022-09-13T18:51:51.589Z,28.90
2022-09-13T18:56:54.942Z,27.13
2022-09-13T19:01:57.330Z,28.80
2022-09-13T19:07:02.351Z,27.23
2022-09-13T19:12:04.902Z,29.57
2022-09-13T19:17:07.278Z,28.03
2022-09-13T19:22:09.564Z,31.33
2022-09-13T19:27:11.938Z,25.47
2022-09-13T19:32:15.278Z,25.60
2022-09-13T19:37:17.582Z,23.53
2022-09-13T19:42:19.889Z,23.50
2022-09-13T19:48:12.918Z,22.80
2022-09-13T19:52:45.655Z,22.73
2022-09-13T19:57:47.993Z,20.70
2022-09-13T20:02:50.306Z,20.40
2022-09-13T20:07:52.638Z,20.73
2022-09-13T20:12:55.950Z,21.30
2022-09-13T20:17:58.331Z,17.33
2022-09-13T20:23:00.670Z,17.83
2022-09-13T20:28:03.667Z,21.67
2022-09-13T20:33:06.046Z,20.47
2022-09-13T20:38:08.625Z,18.27
2022-09-13T20:43:10.948Z,17.77
2022-09-13T20:48:13.316Z,19.40
2022-09-13T20:53:15.636Z,18.23
2022-09-13T20:58:18.351Z,18.47
2022-09-13T21:03:20.734Z,19.97
2022-09-13T21:08:41.424Z,18.37
2022-09-13T21:13:52.630Z,19.10
2022-09-13T21:18:55.670Z,18.77
2022-09-13T21:24:00.423Z,17.77
2022-09-13T21:29:03.108Z,20.40
2022-09-13T21:34:08.509Z,17.33
2022-09-13T21:39:10.977Z,18.33
2022-09-13T21:44:13.789Z,18.73
2022-09-13T21:49:16.499Z,17.77
2022-09-13T21:54:19.978Z,19.07
2022-09-13T21:59:23.642Z,17.67
2022-09-13T22:04:27.283Z,17.63
2022-09-13T22:09:29.955Z,17.40
2022-09-13T22:14:32.519Z,16.87
2022-09-13T22:19:34.850Z,22.37
2022-09-13T22:24:37.125Z,18.37
2022-09-13T22:29:40.432Z,17.63
2022-09-13T22:34:42.709Z,15.80
2022-09-13T22:39:44.993Z,16.50
2022-09-13T22:44:47.342Z,15.90
2022-09-13T22:49:49.648Z,17.87
2022-09-13T22:54:52.084Z,18.13
2022-09-13T22:59:54.392Z,16.27
2022-09-13T23:04:56.672Z,18.17
2022-09-13T23:09:58.925Z,18.37
2022-09-13T23:15:01.231Z,20.20
2022-09-13T23:20:03.704Z,22.23
2022-09-13T23:25:06.499Z,23.17
2022-09-13T23:30:09.317Z,24.53
2022-09-13T23:35:11.724Z,22.20
2022-09-13T23:40:14.212Z,23.20
2022-09-13T23:45:16.735Z,23.13
2022-09-13T23:50:19.097Z,23.37
2022-09-13T23:55:21.452Z,23.63
